Weather history for 0410

Weather History For Prescott AZ

This page updates 5 minutes after midnight. GMT -7

Station: KPRC0 Rows: 26

Return to today's weather
Year Date Temp (°F) Tmin (°F) Tmax (°F) RH% Prcp Snow Wind Gust Pres Sun Cloud
2000 2000-04-10 55.4 37.9 68.0 26 12.8 29.79 3
2001 2001-04-10 34.2 30.0 39.0 77 15.5 29.74 7
2002 2002-04-10 59.5 33 15.5 29.99 0
2003 2003-04-10 56.3 23 12.9 29.90 0
2004 2004-04-10 53.2 41.0 66.2 43 16.8 29.81 2
2005 2005-04-10 45.0 34.0 57.0 50 0.0 14.7 29.85 1
2006 2006-04-10 54.7 48.0 63.0 30 0.0 21.9 29.75 2
2007 2007-04-10 59.5 50.0 70.0 33 0.0 19.8 29.80 1
2008 2008-04-10 46.8 35.1 59.0 22 0.0 21.0 29.88 0
2009 2009-04-10 50.4 39.0 60.1 37 18.3 29.68 2
2010 2010-04-10 55.4 37.9 68.0 24 0.0 13.1 29.90 0
2011 2011-04-10 35.2 21.0 51.1 69 0.0 7.6 30.17
2012 2012-04-10 59.5 42.1 75.9 20 0.0 17.1 29.85 0
2013 2013-04-10 44.8 30.9 59.0 36 0.0 14.7 29.94 2
2014 2014-04-10 63.7 45.0 79.0 12 0.0 16.7 29.93 0
2015 2015-04-10 52.2 35.1 68.0 22 0.0 9.2 29.91 0
2016 2016-04-10 47.7 42.1 52.0 71 15.0 29.82
2017 2017-04-10 50.9 32.0 68.0 31 0.0 8.7 29.99 0
2018 2018-04-10 0.00
2019 2019-04-10 47.3 37.0 55.0 31 0.0 26.1 29.74
2020 2020-04-10 45.3 30.9 57.9 52 0.0 10.1 29.92 1
2021 2021-04-10 57.7 39.0 73.9 21 0.0 12.8 29.80 0
2022 2022-04-10 59.7 50.0 69.1 20 0.0 17.8 29.65 0
2023 2023-04-10 61.2 37.9 80.1 27 0.0 11.9 30.05 0
2024 2024-04-10 56.7 39.0 70.0 26 0.0 10.5 30.00 0
2025 2025-04-10 64.8 46.9 84.0 22 0.0 10.5 30.10 0
Average Low 38.3
Average High 64.9

Daily High / Low by Year (04/10)

Barometric Pressure by Year (04/10)

Weather data provided by Meteostat